No particular awareness of the weather is required.    There are no Weather-warnings


Meteo18 Weather Cam more information Meteo18 Weather Cam


Thunder radar more information blitzortung!


Rain radar more information rain snow radar


Visit our other weather sites:

Template documentation
and downloads

And another site



Weather Underground History page Text

Daily Summary for February 18, 2018 Units:  English    Metric   Both
« Previous Day
Next Day »
Daily Weekly Monthly Yearly Custom
  High: Low: Average:
Temperature: TemperatureC °F -0.8 °F 1.9 °F
Dew Point: DewpointC °F -1.2 °F 1.4 °F
Humidity: Humidity % 94 % 97 %
Wind Speed: WindSpeedKMH mph 0.0 mph 0.6 mph
Wind Gust: WindSpeedGustKMH mph - -
Wind:- - SSW
Pressure: PressurehPa in 1021.6 in -
Precipitation: 0.3 in    
Historical Graphs
 
 
Tabular Data for February 18, 2018
Time Temperature Dew Point Pressure Wind Wind Speed Wind Gust Humidity Rainfall Rate (Hourly)
TemperatureC °F DewpointC °F PressurehPa in Calm     Humidity % HourlyPrecipMM in
00:00 3.1 °F 2.7 °F 1025.6 in Calm   1.6 mph 97 % 0.0 in
00:07 3.1 °F 2.7 °F 1025.6 in Calm   1.6 mph 97 % 0.0 in
00:13 3.1 °F 2.7 °F 1025.6 in Calm     97 % 0.0 in
00:19 3.2 °F 2.8 °F 1025.6 in Calm     97 % 0.0 in
00:25 3.2 °F 2.8 °F 1025.6 in Calm     97 % 0.0 in
00:31 3.0 °F 2.6 °F 1025.6 in Calm     97 % 0.0 in
00:37 2.8 °F 2.4 °F 1025.6 in Calm   1.6 mph 97 % 0.0 in
00:43 2.6 °F 2.0 °F 1025.6 in Calm   1.6 mph 96 % 0.0 in
00:49 2.3 °F 1.7 °F 1025.6 in Calm   1.6 mph 96 % 0.0 in
00:55 2.3 °F 1.9 °F 1025.6 in Calm   1.6 mph 97 % 0.0 in
01:01 2.2 °F 1.8 °F 1025.6 in WNW 1.4 mph 3.2 mph 97 % 0.0 in
01:07 2.0 °F 1.4 °F 1025.6 in Calm   1.6 mph 96 % 0.0 in
01:13 2.0 °F 1.6 °F 1025.6 in Calm   1.6 mph 97 % 0.0 in
01:19 1.9 °F 1.5 °F 1025.6 in Calm   3.2 mph 97 % 0.0 in
01:25 1.8 °F 1.4 °F 1025.6 in Calm   1.6 mph 97 % 0.0 in
01:31 1.8 °F 1.4 °F 1025.6 in Calm     97 % 0.0 in
01:37 1.8 °F 1.4 °F 1025.6 in NNE 1.4 mph 1.6 mph 97 % 0.0 in
01:43 1.7 °F 1.3 °F 1025.6 in Calm     97 % 0.0 in
01:49 1.6 °F 1.2 °F 1025.6 in Calm     97 % 0.0 in
01:55 1.5 °F 1.1 °F 1025.6 in Calm     97 % 0.0 in
02:01 1.5 °F 1.1 °F 1025.6 in Calm     97 % 0.0 in
02:07 1.4 °F 1.0 °F 1025.6 in Calm     97 % 0.0 in
02:13 1.4 °F 1.0 °F 1025.6 in Calm     97 % 0.0 in
02:19 1.4 °F 1.0 °F 1025.6 in Calm     97 % 0.0 in
02:25 1.4 °F 1.0 °F 1025.6 in Calm     97 % 0.0 in
02:31 1.3 °F 0.9 °F 1025.6 in Calm     97 % 0.0 in
02:37 1.3 °F 0.9 °F 1026.0 in Calm     97 % 0.0 in
02:43 1.0 °F 0.6 °F 1026.0 in Calm     97 % 0.0 in
02:49 1.1 °F 0.7 °F 1025.6 in Calm     97 % 0.0 in
02:55 1.1 °F 0.7 °F 1025.6 in Calm     97 % 0.0 in
03:01 0.9 °F 0.5 °F 1025.6 in Calm     97 % 0.0 in
03:07 0.8 °F 0.4 °F 1025.6 in Calm     97 % 0.0 in
03:13 0.7 °F 0.3 °F 1025.6 in Calm     97 % 0.0 in
03:19 0.7 °F 0.3 °F 1025.6 in Calm     97 % 0.0 in
03:25 0.6 °F 0.2 °F 1025.6 in Calm     97 % 0.0 in
03:31 0.6 °F 0.2 °F 1025.6 in Calm     97 % 0.0 in
03:37 0.5 °F 0.1 °F 1025.6 in Calm     97 % 0.0 in
03:43 0.5 °F 0.1 °F 1025.6 in Calm     97 % 0.0 in
03:49 0.4 °F 0.0 °F 1025.6 in Calm     97 % 0.0 in
03:55 0.3 °F -0.1 °F 1025.6 in Calm     97 % 0.0 in
04:01 0.3 °F -0.1 °F 1025.3 in Calm     97 % 0.0 in
04:07 0.4 °F 0.0 °F 1025.6 in Calm     97 % 0.0 in
04:13 0.4 °F 0.0 °F 1025.3 in Calm     97 % 0.0 in
04:19 0.5 °F 0.1 °F 1025.6 in Calm     97 % 0.0 in
04:26 0.5 °F 0.1 °F 1025.6 in Calm     97 % 0.0 in
04:32 0.3 °F -0.1 °F 1025.6 in Calm     97 % 0.0 in
04:38 0.2 °F -0.2 °F 1025.3 in Calm     97 % 0.0 in
04:44 0.2 °F -0.2 °F 1025.3 in Calm     97 % 0.0 in
04:50 0.3 °F -0.1 °F 1025.6 in Calm     97 % 0.0 in
04:56 0.3 °F -0.1 °F 1025.3 in Calm     97 % 0.0 in
05:02 0.3 °F -0.1 °F 1025.6 in Calm     97 % 0.0 in
05:08 0.3 °F -0.1 °F 1025.3 in Calm     97 % 0.0 in
05:14 0.4 °F 0.0 °F 1025.3 in Calm     97 % 0.0 in
05:20 0.4 °F 0.0 °F 1025.3 in Calm     97 % 0.0 in
05:26 0.6 °F 0.2 °F 1025.3 in Calm     97 % 0.0 in
05:32 0.6 °F 0.2 °F 1025.3 in Calm     97 % 0.0 in
05:38 0.7 °F 0.3 °F 1025.3 in Calm     97 % 0.0 in
05:44 0.8 °F 0.4 °F 1024.9 in Calm     97 % 0.0 in
05:50 0.9 °F 0.6 °F 1024.9 in Calm   1.6 mph 98 % 0.0 in
05:56 0.9 °F 0.6 °F 1024.9 in SW 3.2 mph 3.2 mph 98 % 0.0 in
06:02 1.0 °F 0.7 °F 1025.3 in Calm   3.2 mph 98 % 0.0 in
06:09 0.9 °F 0.6 °F 1024.9 in Calm   1.6 mph 98 % 0.0 in
06:15 0.9 °F 0.6 °F 1024.9 in Calm   1.6 mph 98 % 0.0 in
06:21 0.9 °F 0.5 °F 1025.3 in Calm     97 % 0.0 in
06:27 1.0 °F 0.6 °F 1025.3 in Calm     97 % 0.0 in
06:33 1.1 °F 0.7 °F 1025.3 in Calm     97 % 0.0 in
06:39 1.1 °F 0.7 °F 1025.3 in Calm     97 % 0.0 in
06:45 1.1 °F 0.8 °F 1025.3 in Calm   1.6 mph 98 % 0.0 in
06:51 1.1 °F 0.8 °F 1025.3 in Calm     98 % 0.3 in
06:57 1.2 °F 0.9 °F 1025.3 in Calm     98 % 0.3 in
07:03 1.2 °F 0.9 °F 1025.3 in Calm     98 % 0.3 in
07:09 1.2 °F 0.9 °F 1025.3 in Calm     98 % 0.3 in
07:15 1.2 °F 0.9 °F 1025.3 in Calm     98 % 0.3 in
07:21 1.2 °F 0.8 °F 1025.3 in Calm     97 % 0.3 in
07:27 1.2 °F 0.9 °F 1025.3 in Calm     98 % 0.3 in
07:33 1.2 °F 0.9 °F 1025.3 in Calm     98 % 0.3 in
07:39 1.2 °F 0.8 °F 1025.3 in Calm     97 % 0.3 in
07:45 1.2 °F 0.8 °F 1025.3 in Calm   1.6 mph 97 % 0.3 in
07:51 1.2 °F 0.8 °F 1025.3 in Calm   1.6 mph 97 % 0.0 in
07:57 1.2 °F 0.8 °F 1025.6 in SSW 1.4 mph 1.6 mph 97 % 0.0 in
08:03 1.2 °F 0.8 °F 1025.3 in South 1.4 mph 3.2 mph 97 % 0.0 in
08:09 1.1 °F 0.7 °F 1025.3 in Calm   1.6 mph 97 % 0.0 in
08:15 1.2 °F 0.8 °F 1025.3 in Calm   1.6 mph 97 % 0.0 in
08:21 1.1 °F 0.7 °F 1025.3 in Calm     97 % 0.0 in
08:27 1.2 °F 0.8 °F 1025.3 in Calm   1.6 mph 97 % 0.0 in
08:33 1.2 °F 0.9 °F 1025.3 in Calm     98 % 0.0 in
08:40 1.3 °F 1.0 °F 1025.3 in Calm     98 % 0.0 in
08:46 1.3 °F 1.0 °F 1025.3 in Calm   1.6 mph 98 % 0.0 in
08:52 1.3 °F 1.0 °F 1025.3 in Calm   1.6 mph 98 % 0.0 in
08:58 1.3 °F 1.0 °F 1025.3 in Calm   1.6 mph 98 % 0.0 in
09:04 1.3 °F 1.0 °F 1025.3 in Calm   3.2 mph 98 % 0.0 in
09:10 1.4 °F 1.1 °F 1025.3 in SW 1.4 mph 1.6 mph 98 % 0.0 in
09:16 1.4 °F 1.1 °F 1024.9 in SW 1.4 mph 3.2 mph 98 % 0.0 in
09:22 1.4 °F 1.1 °F 1025.3 in SW 3.2 mph 4.8 mph 98 % 0.0 in
09:28 1.4 °F 1.1 °F 1024.9 in Calm   3.2 mph 98 % 0.0 in
09:34 1.6 °F 1.3 °F 1024.9 in Calm   1.6 mph 98 % 0.0 in
09:42 1.4 °F 1.0 °F 1024.9 in Calm   4.8 mph 97 % 0.0 in
09:48 1.4 °F 1.0 °F 1024.9 in Calm   3.2 mph 97 % 0.0 in
09:54 1.5 °F 1.1 °F 1024.9 in SSW 1.4 mph 3.2 mph 97 % 0.0 in
10:00 1.6 °F 1.3 °F 1024.9 in South 1.4 mph 3.2 mph 98 % 0.0 in
10:06 1.7 °F 1.4 °F 1024.9 in SW 1.4 mph 4.8 mph 98 % 0.0 in
10:08 1.7 °F 1.4 °F 1024.9 in SE 1.4 mph 3.2 mph 98 % 0.0 in
10:12 1.7 °F 1.4 °F 1024.9 in SSW 1.4 mph 1.6 mph 98 % 0.0 in
10:18 1.8 °F 1.5 °F 1024.9 in SSW 3.2 mph 4.8 mph 98 % 0.0 in
10:24 1.8 °F 1.5 °F 1024.9 in SE 3.2 mph 4.8 mph 98 % 0.0 in
10:30 1.7 °F 1.3 °F 1024.9 in SW 4.7 mph 4.8 mph 97 % 0.0 in
10:36 1.6 °F 1.2 °F 1024.9 in SW 4.7 mph 6.4 mph 97 % 0.0 in
10:42 1.6 °F 1.2 °F 1024.9 in SSW 1.4 mph 3.2 mph 97 % 0.0 in
10:48 1.7 °F 1.3 °F 1024.9 in SSE 1.4 mph 3.2 mph 97 % 0.0 in
10:54 1.7 °F 1.3 °F 1024.9 in Calm   3.2 mph 97 % 0.0 in
11:00 1.7 °F 1.3 °F 1024.9 in SE 1.4 mph 4.8 mph 97 % 0.0 in
11:06 1.8 °F 1.4 °F 1024.9 in Calm   1.6 mph 97 % 0.0 in
11:12 1.9 °F 1.5 °F 1024.9 in Calm   1.6 mph 97 % 0.0 in
11:18 2.1 °F 1.8 °F 1024.9 in WSW 1.4 mph 6.4 mph 98 % 0.0 in
11:24 2.2 °F 1.9 °F 1025.3 in SSW 1.4 mph 1.6 mph 98 % 0.0 in
11:30 2.2 °F 1.9 °F 1024.9 in Calm   4.8 mph 98 % 0.0 in
11:36 2.3 °F 2.0 °F 1024.9 in Calm   3.2 mph 98 % 0.0 in
11:42 2.5 °F 2.2 °F 1024.9 in Calm   3.2 mph 98 % 0.0 in
11:48 2.7 °F 2.4 °F 1024.9 in SSW 1.4 mph 3.2 mph 98 % 0.0 in
11:54 2.7 °F 2.4 °F 1024.9 in Calm   1.6 mph 98 % 0.0 in
12:00 2.7 °F 2.4 °F 1024.9 in Calm   1.6 mph 98 % 0.0 in
12:06 2.9 °F 2.6 °F 1024.9 in Calm     98 % 0.0 in
12:12 3.0 °F 2.7 °F 1024.9 in Calm   1.6 mph 98 % 0.0 in
12:18 3.1 °F 2.8 °F 1024.9 in Calm   1.6 mph 98 % 0.0 in
12:24 3.2 °F 2.9 °F 1024.9 in SW 1.4 mph 3.2 mph 98 % 0.0 in
12:30 3.3 °F 3.0 °F 1024.9 in SSE 1.4 mph 4.8 mph 98 % 0.0 in
12:36 3.4 °F 3.1 °F 1024.9 in Calm   1.6 mph 98 % 0.0 in
12:42 3.4 °F 3.1 °F 1024.6 in ESE 1.4 mph 3.2 mph 98 % 0.0 in
12:48 3.6 °F 3.3 °F 1024.6 in SW 1.4 mph 1.6 mph 98 % 0.0 in
12:54 3.6 °F 3.3 °F 1024.6 in Calm   1.6 mph 98 % 0.0 in
13:00 3.6 °F 3.3 °F 1024.6 in SSE 1.4 mph 3.2 mph 98 % 0.0 in
13:06 3.6 °F 3.3 °F 1024.3 in Calm   3.2 mph 98 % 0.0 in
13:12 3.7 °F 3.4 °F 1024.3 in Calm     98 % 0.0 in
13:18 3.8 °F 3.5 °F 1024.3 in SW 1.4 mph 1.6 mph 98 % 0.0 in
13:24 3.7 °F 3.3 °F 1024.3 in WSW 1.4 mph 3.2 mph 97 % 0.0 in
13:30 3.7 °F 3.3 °F 1023.9 in Calm   6.4 mph 97 % 0.0 in
13:36 3.7 °F 3.3 °F 1024.3 in WSW 1.4 mph 3.2 mph 97 % 0.0 in
13:42 3.7 °F 3.3 °F 1023.9 in Calm     97 % 0.0 in
13:48 3.8 °F 3.4 °F 1023.9 in Calm     97 % 0.0 in
13:54 3.9 °F 3.6 °F 1023.9 in Calm     98 % 0.0 in
14:01 3.9 °F 3.6 °F 1023.9 in Calm     98 % 0.0 in
14:07 3.9 °F 3.5 °F 1023.9 in Calm     97 % 0.0 in
14:13 3.9 °F 3.5 °F 1023.9 in Calm     97 % 0.0 in
14:19 3.9 °F 3.5 °F 1023.9 in Calm     97 % 0.0 in
14:25 4.1 °F 3.8 °F 1023.9 in ENE 3.2 mph 6.4 mph 98 % 0.0 in
14:31 4.0 °F 3.7 °F 1023.9 in Calm   3.2 mph 98 % 0.0 in
14:37 4.0 °F 3.7 °F 1023.6 in Calm   1.6 mph 98 % 0.0 in
14:43 4.1 °F 3.8 °F 1023.6 in Calm     98 % 0.0 in
14:49 4.1 °F 3.8 °F 1023.2 in Calm   1.6 mph 98 % 0.0 in
14:55 4.0 °F 3.6 °F 1023.2 in Calm   3.2 mph 97 % 0.0 in
15:01 4.2 °F 3.9 °F 1023.2 in East 3.2 mph 3.2 mph 98 % 0.0 in
15:07 4.2 °F 3.8 °F 1023.2 in East 4.7 mph 4.8 mph 97 % 0.0 in
15:13 4.2 °F 3.8 °F 1023.2 in SSE 1.4 mph 4.8 mph 97 % 0.0 in
15:19 4.1 °F 3.7 °F 1023.2 in SE 1.4 mph 3.2 mph 97 % 0.0 in
15:25 4.1 °F 3.7 °F 1023.2 in Calm   1.6 mph 97 % 0.0 in
15:31 4.1 °F 3.7 °F 1023.2 in SSW 1.4 mph 1.6 mph 97 % 0.0 in
15:37 4.0 °F 3.6 °F 1023.2 in Calm   1.6 mph 97 % 0.0 in
15:43 4.1 °F 3.7 °F 1023.2 in ENE 1.4 mph 4.8 mph 97 % 0.0 in
15:49 4.1 °F 3.7 °F 1023.2 in NE 1.4 mph 3.2 mph 97 % 0.0 in
15:55 4.1 °F 3.7 °F 1023.2 in East 3.2 mph 6.4 mph 97 % 0.0 in
16:01 4.1 °F 3.7 °F 1023.2 in NE 4.7 mph 6.4 mph 97 % 0.0 in
16:07 3.9 °F 3.5 °F 1023.2 in Calm   3.2 mph 97 % 0.0 in
16:13 3.9 °F 3.5 °F 1023.2 in Calm     97 % 0.0 in
16:19 4.0 °F 3.6 °F 1023.2 in Calm     97 % 0.0 in
16:25 4.1 °F 3.7 °F 1023.2 in Calm   1.6 mph 97 % 0.0 in
16:31 4.1 °F 3.5 °F 1023.2 in Calm   4.8 mph 96 % 0.0 in
16:37 4.1 °F 3.5 °F 1023.2 in NE 4.7 mph 4.8 mph 96 % 0.0 in
16:43 4.0 °F 3.4 °F 1023.2 in ENE 6.4 mph 6.4 mph 96 % 0.0 in
16:49 3.9 °F 3.3 °F 1023.2 in Calm     96 % 0.0 in
16:55 3.9 °F 3.3 °F 1023.2 in Calm   3.2 mph 96 % 0.0 in
17:02 4.0 °F 3.4 °F 1023.2 in ENE 3.2 mph 3.2 mph 96 % 0.0 in
17:08 3.9 °F 3.2 °F 1023.2 in NE 4.7 mph 6.4 mph 95 % 0.0 in
17:14 3.9 °F 3.2 °F 1023.2 in North 3.2 mph 4.8 mph 95 % 0.0 in
17:20 3.7 °F 3.0 °F 1023.2 in Calm   3.2 mph 95 % 0.0 in
17:26 3.6 °F 2.7 °F 1023.2 in Calm   1.6 mph 94 % 0.0 in
17:32 3.7 °F 3.0 °F 1022.9 in NNW 1.4 mph 1.6 mph 95 % 0.0 in
17:38 3.8 °F 3.1 °F 1022.9 in Calm   1.6 mph 95 % 0.0 in
17:44 3.7 °F 2.8 °F 1022.9 in Calm   1.6 mph 94 % 0.0 in
17:50 3.7 °F 2.8 °F 1022.9 in North 1.4 mph 1.6 mph 94 % 0.0 in
17:56 3.6 °F 2.7 °F 1022.9 in North 1.4 mph 3.2 mph 94 % 0.0 in
18:02 3.6 °F 2.7 °F 1022.9 in North 3.2 mph 3.2 mph 94 % 0.0 in
18:08 3.4 °F 2.5 °F 1022.9 in North 3.2 mph 3.2 mph 94 % 0.0 in
18:14 3.2 °F 2.3 °F 1022.9 in NNW 3.2 mph 3.2 mph 94 % 0.0 in
18:20 3.0 °F 2.1 °F 1022.9 in NNW 1.4 mph 4.8 mph 94 % 0.0 in
18:26 2.9 °F 2.2 °F 1022.9 in North 1.4 mph 1.6 mph 95 % 0.0 in
18:32 2.8 °F 2.1 °F 1022.9 in NNW 3.2 mph 4.8 mph 95 % 0.0 in
18:38 2.7 °F 2.0 °F 1022.9 in Calm   1.6 mph 95 % 0.0 in
18:44 2.6 °F 1.9 °F 1022.9 in NNW 1.4 mph 3.2 mph 95 % 0.0 in
18:50 2.5 °F 1.8 °F 1022.9 in NNW 1.4 mph 3.2 mph 95 % 0.0 in
18:56 2.4 °F 1.7 °F 1022.6 in Calm   1.6 mph 95 % 0.0 in
19:02 2.3 °F 1.6 °F 1022.6 in NNW 1.4 mph 1.6 mph 95 % 0.0 in
19:08 2.2 °F 1.5 °F 1022.6 in NNW 1.4 mph 1.6 mph 95 % 0.0 in
19:14 2.2 °F 1.6 °F 1022.6 in NW 1.4 mph 1.6 mph 96 % 0.0 in
19:20 2.1 °F 1.4 °F 1022.6 in WNW 1.4 mph 1.6 mph 95 % 0.0 in
19:26 2.0 °F 1.4 °F 1022.6 in NW 1.4 mph 3.2 mph 96 % 0.0 in
19:32 2.1 °F 1.5 °F 1022.6 in Calm   1.6 mph 96 % 0.0 in
19:38 1.9 °F 1.3 °F 1022.6 in Calm   1.6 mph 96 % 0.0 in
19:44 1.8 °F 1.2 °F 1022.6 in Calm     96 % 0.0 in
19:50 1.6 °F 1.0 °F 1022.6 in Calm     96 % 0.0 in
19:56 1.3 °F 0.7 °F 1022.6 in Calm     96 % 0.0 in
20:03 1.6 °F 1.2 °F 1022.6 in Calm     97 % 0.0 in
20:09 1.6 °F 1.2 °F 1022.6 in Calm     97 % 0.0 in
20:15 1.6 °F 1.0 °F 1022.6 in Calm     96 % 0.0 in
20:21 1.4 °F 0.8 °F 1022.6 in Calm     96 % 0.0 in
20:27 1.4 °F 0.8 °F 1022.6 in Calm     96 % 0.0 in
20:33 1.3 °F 0.7 °F 1022.6 in Calm     96 % 0.0 in
20:39 1.2 °F 0.6 °F 1022.2 in Calm     96 % 0.0 in
20:45 1.1 °F 0.5 °F 1022.2 in Calm     96 % 0.0 in
20:51 1.0 °F 0.4 °F 1022.2 in Calm     96 % 0.0 in
20:57 1.0 °F 0.6 °F 1022.2 in Calm     97 % 0.0 in
21:03 0.9 °F 0.3 °F 1022.2 in Calm     96 % 0.0 in
21:09 0.8 °F 0.4 °F 1022.2 in Calm     97 % 0.0 in
21:15 0.8 °F 0.4 °F 1022.2 in Calm     97 % 0.0 in
21:21 0.4 °F -0.2 °F 1022.2 in Calm     96 % 0.0 in
21:27 0.1 °F -0.5 °F 1022.2 in Calm     96 % 0.0 in
21:33 -0.1 °F -0.7 °F 1021.9 in Calm     96 % 0.0 in
21:39 -0.1 °F -0.5 °F 1021.9 in Calm     97 % 0.0 in
21:45 0.0 °F -0.4 °F 1021.9 in Calm     97 % 0.0 in
21:51 0.1 °F -0.3 °F 1021.9 in Calm     97 % 0.0 in
21:57 -0.2 °F -0.8 °F 1022.2 in Calm     96 % 0.0 in
22:03 -0.2 °F -0.6 °F 1021.9 in Calm     97 % 0.0 in
22:09 0.1 °F -0.3 °F 1021.9 in Calm     97 % 0.0 in
22:15 -0.3 °F -0.9 °F 1022.2 in Calm     96 % 0.0 in
22:21 -0.4 °F -0.8 °F 1022.2 in Calm     97 % 0.0 in
22:27 -0.4 °F -0.8 °F 1021.9 in Calm     97 % 0.0 in
22:33 -0.3 °F -0.7 °F 1021.9 in Calm     97 % 0.0 in
22:39 -0.2 °F -0.6 °F 1021.9 in Calm     97 % 0.0 in
22:45 -0.4 °F -0.8 °F 1021.9 in Calm     97 % 0.0 in
22:51 -0.4 °F -0.8 °F 1021.9 in Calm     97 % 0.0 in
22:57 -0.5 °F -0.9 °F 1021.6 in Calm     97 % 0.0 in
23:03 -0.6 °F -1.0 °F 1021.6 in Calm     97 % 0.0 in
23:09 -0.6 °F -1.0 °F 1021.6 in Calm     97 % 0.0 in
23:15 -0.6 °F -1.0 °F 1021.6 in Calm     97 % 0.0 in
23:21 -0.6 °F -1.0 °F 1021.9 in East 3.2 mph 6.4 mph 97 % 0.0 in
23:27 -0.8 °F -1.2 °F 1021.9 in SE 1.4 mph 3.2 mph 97 % 0.0 in
23:33 -0.8 °F -1.2 °F 1021.9 in Calm   3.2 mph 97 % 0.0 in
23:39 -0.7 °F -1.1 °F 1021.9 in Calm     97 % 0.0 in
23:45 -0.7 °F -1.1 °F 1021.9 in Calm     97 % 0.0 in
23:51 -0.6 °F -1.0 °F 1021.9 in Calm     97 % 0.0 in
23:57 -0.6 °F -1.0 °F 1021.6 in Calm     97 % 0.0 in
Meteo18
Compliments of Weather Underground - 4 mb

Script developed by  Jim McMurry - jmcmurry@mwt.net Adapted for the template by  Wim van der Kuil - Leuven-Template.eu

You find our weather info also at:

European Weather Network

Weather Underground

Equipment we use:

Weather-station
Davis Vue

Weather-program
Meteobridge

Weather-server
Raspberry PI 2 B+

Provider
1 and 1

Davis Vue

Meteobridge

Raspberry PI 2 B+

1 and 1